sensor_id;sensor_type;location;lat;lon;timestamp;pressure;altitude;pressure_sealevel;temperature;humidity
9462;BME280;4769;42.660;23.262;2023-01-15T00:01:30;94396.69;;;5.85;90.93
9462;BME280;4769;42.660;23.262;2023-01-15T00:03:59;94386.44;;;5.71;91.11
9462;BME280;4769;42.660;23.262;2023-01-15T00:06:28;94392.25;;;5.73;91.22
9462;BME280;4769;42.660;23.262;2023-01-15T00:08:56;94395.25;;;5.76;91.23
9462;BME280;4769;42.660;23.262;2023-01-15T00:11:23;94393.25;;;5.78;91.22
9462;BME280;4769;42.660;23.262;2023-01-15T00:13:50;94395.50;;;5.68;91.41
9462;BME280;4769;42.660;23.262;2023-01-15T00:16:18;94391.28;;;5.54;92.54
9462;BME280;4769;42.660;23.262;2023-01-15T00:18:50;94382.63;;;5.60;92.31
9462;BME280;4769;42.660;23.262;2023-01-15T00:21:18;94393.47;;;5.64;92.83
9462;BME280;4769;42.660;23.262;2023-01-15T00:23:45;94390.84;;;5.57;92.50
9462;BME280;4769;42.660;23.262;2023-01-15T00:26:31;94400.72;;;5.62;92.29
9462;BME280;4769;42.660;23.262;2023-01-15T00:29:16;94403.94;;;5.57;92.48
9462;BME280;4769;42.660;23.262;2023-01-15T00:31:53;94398.31;;;5.41;93.62
9462;BME280;4769;42.660;23.262;2023-01-15T00:34:22;94389.06;;;5.51;93.53
9462;BME280;4769;42.660;23.262;2023-01-15T00:36:49;94389.66;;;5.47;93.44
9462;BME280;4769;42.660;23.262;2023-01-15T00:39:16;94396.72;;;5.53;93.21
9462;BME280;4769;42.660;23.262;2023-01-15T00:41:43;94399.72;;;5.43;92.73
9462;BME280;4769;42.660;23.262;2023-01-15T00:44:10;94399.13;;;5.28;93.85
9462;BME280;4769;42.660;23.262;2023-01-15T00:46:36;94392.47;;;5.19;94.07
9462;BME280;4769;42.660;23.262;2023-01-15T00:49:08;94385.03;;;5.10;95.03
9462;BME280;4769;42.660;23.262;2023-01-15T00:51:38;94388.28;;;5.31;94.44
9462;BME280;4769;42.660;23.262;2023-01-15T00:54:05;94377.59;;;5.33;94.26
9462;BME280;4769;42.660;23.262;2023-01-15T00:56:32;94387.03;;;5.47;93.87
9462;BME280;4769;42.660;23.262;2023-01-15T00:59:00;94389.69;;;5.34;93.97
9462;BME280;4769;42.660;23.262;2023-01-15T01:01:27;94394.69;;;5.35;93.61
9462;BME280;4769;42.660;23.262;2023-01-15T01:03:55;94389.06;;;5.32;94.36
9462;BME280;4769;42.660;23.262;2023-01-15T01:06:22;94389.06;;;5.25;94.40
9462;BME280;4769;42.660;23.262;2023-01-15T01:08:50;94393.09;;;5.15;94.08
9462;BME280;4769;42.660;23.262;2023-01-15T01:11:19;94374.19;;;5.13;94.98
9462;BME280;4769;42.660;23.262;2023-01-15T01:13:48;94376.81;;;5.26;94.43
9462;BME280;4769;42.660;23.262;2023-01-15T01:16:24;94380.81;;;5.48;94.10
9462;BME280;4769;42.660;23.262;2023-01-15T01:18:51;94380.81;;;5.41;93.87
9462;BME280;4769;42.660;23.262;2023-01-15T01:21:18;94372.16;;;5.41;93.69
9462;BME280;4769;42.660;23.262;2023-01-15T01:23:45;94387.22;;;5.52;93.47
9462;BME280;4769;42.660;23.262;2023-01-15T01:26:13;94380.41;;;5.57;93.60
9462;BME280;4769;42.660;23.262;2023-01-15T01:28:40;94375.53;;;5.67;93.54
9462;BME280;4769;42.660;23.262;2023-01-15T01:31:07;94370.72;;;5.71;92.71
9462;BME280;4769;42.660;23.262;2023-01-15T01:33:35;94372.72;;;5.69;92.54
9462;BME280;4769;42.660;23.262;2023-01-15T01:36:02;94381.78;;;5.60;93.08
9462;BME280;4769;42.660;23.262;2023-01-15T01:38:29;94378.78;;;5.63;93.03
9462;BME280;4769;42.660;23.262;2023-01-15T01:40:56;94375.34;;;5.69;92.46
9462;BME280;4769;42.660;23.262;2023-01-15T01:43:26;94374.16;;;5.52;93.04
9462;BME280;4769;42.660;23.262;2023-01-15T01:45:53;94370.75;;;5.58;92.93
9462;BME280;4769;42.660;23.262;2023-01-15T01:48:23;94376.78;;;5.52;93.59
9462;BME280;4769;42.660;23.262;2023-01-15T01:50:53;94365.31;;;5.46;93.53
9462;BME280;4769;42.660;23.262;2023-01-15T01:53:24;94379.81;;;5.49;93.67
9462;BME280;4769;42.660;23.262;2023-01-15T01:55:52;94379.19;;;5.53;93.66
9462;BME280;4769;42.660;23.262;2023-01-15T01:58:20;94375.97;;;5.51;93.49
9462;BME280;4769;42.660;23.262;2023-01-15T02:00:50;94372.97;;;5.54;93.58
9462;BME280;4769;42.660;23.262;2023-01-15T02:03:20;94367.13;;;5.59;93.07
9462;BME280;4769;42.660;23.262;2023-01-15T02:05:52;94358.28;;;5.47;93.24
9462;BME280;4769;42.660;23.262;2023-01-15T02:08:20;94366.94;;;5.41;93.84
9462;BME280;4769;42.660;23.262;2023-01-15T02:10:50;94368.13;;;5.51;94.04
9462;BME280;4769;42.660;23.262;2023-01-15T02:13:21;94362.91;;;5.38;93.76
9462;BME280;4769;42.660;23.262;2023-01-15T02:15:57;94359.13;;;5.08;95.24
9462;BME280;4769;42.660;23.262;2023-01-15T02:18:29;94352.25;;;5.20;95.01
9462;BME280;4769;42.660;23.262;2023-01-15T02:20:59;94354.88;;;5.27;94.15
9462;BME280;4769;42.660;23.262;2023-01-15T02:23:37;94358.50;;;5.19;94.44
9462;BME280;4769;42.660;23.262;2023-01-15T02:26:24;94366.72;;;5.16;95.34
9462;BME280;4769;42.660;23.262;2023-01-15T02:28:56;94354.28;;;5.18;95.66
9462;BME280;4769;42.660;23.262;2023-01-15T02:31:26;94364.13;;;5.23;95.61
9462;BME280;4769;42.660;23.262;2023-01-15T02:33:57;94353.88;;;5.21;95.30
9462;BME280;4769;42.660;23.262;2023-01-15T02:36:30;94352.66;;;5.24;95.69
9462;BME280;4769;42.660;23.262;2023-01-15T02:39:02;94356.28;;;5.23;95.55
9462;BME280;4769;42.660;23.262;2023-01-15T02:41:35;94350.06;;;5.11;96.00
9462;BME280;4769;42.660;23.262;2023-01-15T02:44:06;94345.44;;;5.13;94.90
9462;BME280;4769;42.660;23.262;2023-01-15T02:46:35;94344.03;;;5.17;95.18
9462;BME280;4769;42.660;23.262;2023-01-15T02:49:05;94344.81;;;5.24;95.05
9462;BME280;4769;42.660;23.262;2023-01-15T02:51:37;94349.84;;;5.32;94.87
9462;BME280;4769;42.660;23.262;2023-01-15T02:54:09;94340.41;;;5.18;93.79
9462;BME280;4769;42.660;23.262;2023-01-15T02:56:39;94346.63;;;4.97;94.73
9462;BME280;4769;42.660;23.262;2023-01-15T02:59:12;94349.25;;;4.97;97.06
9462;BME280;4769;42.660;23.262;2023-01-15T03:01:44;94339.59;;;4.59;97.98
9462;BME280;4769;42.660;23.262;2023-01-15T03:04:16;94341.38;;;4.58;98.85
9462;BME280;4769;42.660;23.262;2023-01-15T03:06:48;94345.38;;;4.48;99.03
9462;BME280;4769;42.660;23.262;2023-01-15T03:09:18;94340.13;;;4.41;99.33
9462;BME280;4769;42.660;23.262;2023-01-15T03:11:48;94337.31;;;4.36;99.29
9462;BME280;4769;42.660;23.262;2023-01-15T03:14:23;94336.47;;;4.23;99.87
9462;BME280;4769;42.660;23.262;2023-01-15T03:16:55;94327.81;;;4.16;99.92
9462;BME280;4769;42.660;23.262;2023-01-15T03:19:26;94328.03;;;4.21;99.96
9462;BME280;4769;42.660;23.262;2023-01-15T03:21:57;94333.66;;;4.31;100.00
9462;BME280;4769;42.660;23.262;2023-01-15T03:24:30;94328.81;;;4.15;99.45
9462;BME280;4769;42.660;23.262;2023-01-15T03:26:57;94337.06;;;4.25;100.00
9462;BME280;4769;42.660;23.262;2023-01-15T03:29:29;94336.53;;;4.36;100.00
9462;BME280;4769;42.660;23.262;2023-01-15T03:31:59;94347.59;;;4.51;99.39
9462;BME280;4769;42.660;23.262;2023-01-15T03:34:30;94343.81;;;4.66;98.07
9462;BME280;4769;42.660;23.262;2023-01-15T03:36:59;94353.47;;;4.79;97.04
9462;BME280;4769;42.660;23.262;2023-01-15T03:39:25;94348.03;;;4.67;97.02
9462;BME280;4769;42.660;23.262;2023-01-15T03:41:58;94340.59;;;4.71;96.88
9462;BME280;4769;42.660;23.262;2023-01-15T03:44:35;94347.22;;;4.80;95.71
9462;BME280;4769;42.660;23.262;2023-01-15T03:47:11;94349.00;;;4.60;95.15
9462;BME280;4769;42.660;23.262;2023-01-15T03:49:48;94338.78;;;4.65;94.99
9462;BME280;4769;42.660;23.262;2023-01-15T03:52:21;94343.22;;;4.90;94.19
9462;BME280;4769;42.660;23.262;2023-01-15T03:54:53;94349.06;;;4.99;94.00
9462;BME280;4769;42.660;23.262;2023-01-15T03:57:29;94344.41;;;5.07;94.06
9462;BME280;4769;42.660;23.262;2023-01-15T04:00:03;94342.44;;;5.16;93.98
9462;BME280;4769;42.660;23.262;2023-01-15T04:02:33;94346.03;;;5.28;93.55
9462;BME280;4769;42.660;23.262;2023-01-15T04:05:02;94347.41;;;5.37;92.86
9462;BME280;4769;42.660;23.262;2023-01-15T04:07:30;94344.81;;;5.43;93.19
9462;BME280;4769;42.660;23.262;2023-01-15T04:09:57;94340.19;;;5.45;93.17
9462;BME280;4769;42.660;23.262;2023-01-15T04:12:24;94336.38;;;5.41;92.93
9462;BME280;4769;42.660;23.262;2023-01-15T04:14:52;94344.41;;;5.53;92.80
9462;BME280;4769;42.660;23.262;2023-01-15T04:17:20;94347.59;;;5.55;92.84
9462;BME280;4769;42.660;23.262;2023-01-15T04:19:47;94338.75;;;5.56;92.78
9462;BME280;4769;42.660;23.262;2023-01-15T04:22:14;94339.56;;;5.56;92.75
9462;BME280;4769;42.660;23.262;2023-01-15T04:24:40;94346.00;;;5.60;93.01
9462;BME280;4769;42.660;23.262;2023-01-15T04:27:07;94346.38;;;5.57;92.66
9462;BME280;4769;42.660;23.262;2023-01-15T04:29:34;94350.22;;;5.61;92.54
9462;BME280;4769;42.660;23.262;2023-01-15T04:32:01;94345.97;;;5.67;92.50
9462;BME280;4769;42.660;23.262;2023-01-15T04:34:29;94345.97;;;5.67;91.40
9462;BME280;4769;42.660;23.262;2023-01-15T04:36:56;94347.78;;;5.66;91.34
9462;BME280;4769;42.660;23.262;2023-01-15T04:39:23;94352.19;;;5.72;91.37
9462;BME280;4769;42.660;23.262;2023-01-15T04:41:49;94354.81;;;5.72;90.99
9462;BME280;4769;42.660;23.262;2023-01-15T04:44:34;94355.03;;;5.64;91.56
9462;BME280;4769;42.660;23.262;2023-01-15T04:47:01;94351.22;;;5.60;91.92
9462;BME280;4769;42.660;23.262;2023-01-15T04:49:29;94351.22;;;5.54;91.63
9462;BME280;4769;42.660;23.262;2023-01-15T04:51:56;94356.47;;;5.47;92.05
9462;BME280;4769;42.660;23.262;2023-01-15T04:54:23;94351.44;;;5.46;91.87
9462;BME280;4769;42.660;23.262;2023-01-15T04:56:51;94357.69;;;5.38;92.08
9462;BME280;4769;42.660;23.262;2023-01-15T04:59:22;94354.88;;;5.33;92.34
9462;BME280;4769;42.660;23.262;2023-01-15T05:01:49;94355.69;;;5.27;92.76
9462;BME280;4769;42.660;23.262;2023-01-15T05:04:16;94350.66;;;5.19;92.77
9462;BME280;4769;42.660;23.262;2023-01-15T05:06:44;94354.88;;;5.14;93.49
9462;BME280;4769;42.660;23.262;2023-01-15T05:09:11;94355.50;;;5.03;93.73
9462;BME280;4769;42.660;23.262;2023-01-15T05:11:38;94354.28;;;4.92;94.42
9462;BME280;4769;42.660;23.262;2023-01-15T05:14:06;94358.09;;;4.96;94.31
9462;BME280;4769;42.660;23.262;2023-01-15T05:16:33;94369.31;;;4.77;95.04
9462;BME280;4769;42.660;23.262;2023-01-15T05:19:02;94356.88;;;4.73;95.51
9462;BME280;4769;42.660;23.262;2023-01-15T05:21:30;94364.91;;;4.65;95.79
9462;BME280;4769;42.660;23.262;2023-01-15T05:24:00;94355.84;;;4.61;95.44
9462;BME280;4769;42.660;23.262;2023-01-15T05:26:29;94356.63;;;4.55;95.00
9462;BME280;4769;42.660;23.262;2023-01-15T05:28:57;94361.63;;;4.43;95.81
9462;BME280;4769;42.660;23.262;2023-01-15T05:31:25;94364.47;;;4.55;95.05
9462;BME280;4769;42.660;23.262;2023-01-15T05:33:53;94361.66;;;4.50;94.69
9462;BME280;4769;42.660;23.262;2023-01-15T05:36:22;94364.25;;;4.43;94.73
9462;BME280;4769;42.660;23.262;2023-01-15T05:38:49;94365.25;;;4.49;94.79
9462;BME280;4769;42.660;23.262;2023-01-15T05:41:18;94363.81;;;4.46;94.51
9462;BME280;4769;42.660;23.262;2023-01-15T05:44:05;94362.03;;;4.47;93.96
9462;BME280;4769;42.660;23.262;2023-01-15T05:46:33;94363.22;;;4.38;93.94
9462;BME280;4769;42.660;23.262;2023-01-15T05:49:00;94363.22;;;4.38;93.91
9462;BME280;4769;42.660;23.262;2023-01-15T05:51:28;94364.66;;;4.47;93.39
9462;BME280;4769;42.660;23.262;2023-01-15T05:53:56;94361.03;;;4.48;92.66
9462;BME280;4769;42.660;23.262;2023-01-15T05:56:24;94360.47;;;4.59;92.54
9462;BME280;4769;42.660;23.262;2023-01-15T05:58:51;94360.69;;;4.64;92.04
9462;BME280;4769;42.660;23.262;2023-01-15T06:01:19;94358.84;;;4.64;91.82
9462;BME280;4769;42.660;23.262;2023-01-15T06:03:46;94369.47;;;4.56;91.79
9462;BME280;4769;42.660;23.262;2023-01-15T06:06:15;94370.28;;;4.57;91.81
9462;BME280;4769;42.660;23.262;2023-01-15T06:08:43;94372.50;;;4.53;91.57
9462;BME280;4769;42.660;23.262;2023-01-15T06:11:10;94369.25;;;4.51;91.56
9462;BME280;4769;42.660;23.262;2023-01-15T06:13:39;94378.13;;;4.63;91.22
9462;BME280;4769;42.660;23.262;2023-01-15T06:16:06;94367.28;;;4.60;91.19
9462;BME280;4769;42.660;23.262;2023-01-15T06:18:35;94370.50;;;4.62;91.06
9462;BME280;4769;42.660;23.262;2023-01-15T06:21:02;94366.88;;;4.63;90.67
9462;BME280;4769;42.660;23.262;2023-01-15T06:23:30;94365.25;;;4.55;90.70
9462;BME280;4769;42.660;23.262;2023-01-15T06:25:59;94359.25;;;4.55;91.30
9462;BME280;4769;42.660;23.262;2023-01-15T06:28:27;94352.84;;;4.64;90.96
9462;BME280;4769;42.660;23.262;2023-01-15T06:30:55;94368.50;;;4.77;90.98
9462;BME280;4769;42.660;23.262;2023-01-15T06:33:23;94365.31;;;4.81;90.88
9462;BME280;4769;42.660;23.262;2023-01-15T06:35:50;94374.38;;;4.92;90.68
9462;BME280;4769;42.660;23.262;2023-01-15T06:38:17;94372.16;;;4.95;90.57
9462;BME280;4769;42.660;23.262;2023-01-15T06:40:44;94368.53;;;4.90;90.40
9462;BME280;4769;42.660;23.262;2023-01-15T06:43:11;94363.31;;;4.90;90.51
9462;BME280;4769;42.660;23.262;2023-01-15T06:45:57;94365.34;;;4.88;89.81
9462;BME280;4769;42.660;23.262;2023-01-15T06:48:41;94366.53;;;4.92;89.40
9462;BME280;4769;42.660;23.262;2023-01-15T06:51:07;94368.16;;;4.93;89.45
9462;BME280;4769;42.660;23.262;2023-01-15T06:53:34;94374.78;;;4.95;89.63
9462;BME280;4769;42.660;23.262;2023-01-15T06:56:01;94364.13;;;4.97;89.61
9462;BME280;4769;42.660;23.262;2023-01-15T06:58:28;94358.47;;;4.93;89.61
9462;BME280;4769;42.660;23.262;2023-01-15T07:00:56;94364.16;;;5.03;89.21
9462;BME280;4769;42.660;23.262;2023-01-15T07:03:23;94356.88;;;4.99;89.18
9462;BME280;4769;42.660;23.262;2023-01-15T07:05:50;94365.13;;;5.02;90.31
9462;BME280;4769;42.660;23.262;2023-01-15T07:08:17;94369.38;;;5.03;89.65
9462;BME280;4769;42.660;23.262;2023-01-15T07:10:44;94375.38;;;5.10;89.57
9462;BME280;4769;42.660;23.262;2023-01-15T07:13:11;94368.56;;;5.16;89.26
9462;BME280;4769;42.660;23.262;2023-01-15T07:15:38;94356.28;;;5.16;89.73
9462;BME280;4769;42.660;23.262;2023-01-15T07:18:06;94366.16;;;5.21;90.02
9462;BME280;4769;42.660;23.262;2023-01-15T07:20:33;94373.38;;;5.19;90.16
9462;BME280;4769;42.660;23.262;2023-01-15T07:23:03;94374.59;;;5.23;90.23
9462;BME280;4769;42.660;23.262;2023-01-15T07:25:29;94375.78;;;5.20;90.49
9462;BME280;4769;42.660;23.262;2023-01-15T07:27:56;94381.41;;;5.30;89.45
9462;BME280;4769;42.660;23.262;2023-01-15T07:30:23;94386.66;;;5.37;88.78
9462;BME280;4769;42.660;23.262;2023-01-15T07:32:50;94377.78;;;5.44;88.06
9462;BME280;4769;42.660;23.262;2023-01-15T07:35:18;94384.22;;;5.55;87.79
9462;BME280;4769;42.660;23.262;2023-01-15T07:37:50;94386.00;;;5.61;86.98
9462;BME280;4769;42.660;23.262;2023-01-15T07:40:17;94383.56;;;5.79;86.99
9462;BME280;4769;42.660;23.262;2023-01-15T07:42:44;94383.78;;;5.90;87.45
9462;BME280;4769;42.660;23.262;2023-01-15T07:45:28;94390.44;;;6.50;93.43
9462;BME280;4769;42.660;23.262;2023-01-15T07:48:12;94378.53;;;6.85;95.02
9462;BME280;4769;42.660;23.262;2023-01-15T07:50:57;94375.25;;;7.51;95.10
9462;BME280;4769;42.660;23.262;2023-01-15T07:53:24;94371.97;;;7.31;86.63
9462;BME280;4769;42.660;23.262;2023-01-15T07:55:51;94367.84;;;7.17;83.96
9462;BME280;4769;42.660;23.262;2023-01-15T07:58:18;94370.47;;;7.17;84.02
9462;BME280;4769;42.660;23.262;2023-01-15T08:00:45;94367.91;;;7.11;83.04
9462;BME280;4769;42.660;23.262;2023-01-15T08:03:12;94372.00;;;7.00;82.09
9462;BME280;4769;42.660;23.262;2023-01-15T08:05:39;94365.78;;;6.95;80.23
9462;BME280;4769;42.660;23.262;2023-01-15T08:08:13;94363.06;;;6.77;77.80
9462;BME280;4769;42.660;23.262;2023-01-15T08:10:41;94365.47;;;6.78;78.54
9462;BME280;4769;42.660;23.262;2023-01-15T08:13:30;94373.69;;;6.88;77.48
9462;BME280;4769;42.660;23.262;2023-01-15T08:16:14;94377.31;;;6.87;77.72
9462;BME280;4769;42.660;23.262;2023-01-15T08:18:41;94381.50;;;6.95;77.18
9462;BME280;4769;42.660;23.262;2023-01-15T08:21:13;94385.88;;;7.01;76.77
9462;BME280;4769;42.660;23.262;2023-01-15T08:23:42;94380.41;;;7.09;76.56
9462;BME280;4769;42.660;23.262;2023-01-15T08:26:11;94380.16;;;7.41;80.69
9462;BME280;4769;42.660;23.262;2023-01-15T08:28:38;94376.03;;;8.12;80.40
9462;BME280;4769;42.660;23.262;2023-01-15T08:31:05;94378.88;;;7.93;75.16
9462;BME280;4769;42.660;23.262;2023-01-15T08:33:33;94387.28;;;8.01;72.97
9462;BME280;4769;42.660;23.262;2023-01-15T08:36:01;94381.50;;;8.11;72.43
9462;BME280;4769;42.660;23.262;2023-01-15T08:38:28;94386.50;;;8.37;72.44
9462;BME280;4769;42.660;23.262;2023-01-15T08:40:56;94385.81;;;8.59;71.42
9462;BME280;4769;42.660;23.262;2023-01-15T08:43:29;94382.28;;;8.83;70.70
9462;BME280;4769;42.660;23.262;2023-01-15T08:45:57;94376.75;;;9.03;69.09
9462;BME280;4769;42.660;23.262;2023-01-15T08:48:25;94375.72;;;9.04;68.29
9462;BME280;4769;42.660;23.262;2023-01-15T08:50:52;94368.44;;;9.17;68.07
9462;BME280;4769;42.660;23.262;2023-01-15T08:53:19;94366.97;;;9.33;66.87
9462;BME280;4769;42.660;23.262;2023-01-15T08:55:46;94367.44;;;9.30;66.02
9462;BME280;4769;42.660;23.262;2023-01-15T08:58:15;94364.81;;;9.30;66.49
9462;BME280;4769;42.660;23.262;2023-01-15T09:00:43;94378.03;;;9.64;71.90
9462;BME280;4769;42.660;23.262;2023-01-15T09:03:10;94378.03;;;9.76;69.78
9462;BME280;4769;42.660;23.262;2023-01-15T09:05:37;94368.50;;;9.63;67.07
9462;BME280;4769;42.660;23.262;2023-01-15T09:08:04;94371.13;;;9.52;66.95
9462;BME280;4769;42.660;23.262;2023-01-15T09:10:31;94369.72;;;9.38;67.09
9462;BME280;4769;42.660;23.262;2023-01-15T09:12:59;94364.13;;;9.46;66.95
9462;BME280;4769;42.660;23.262;2023-01-15T09:15:28;94369.63;;;9.56;66.91
9462;BME280;4769;42.660;23.262;2023-01-15T09:17:55;94363.22;;;9.52;66.46
9462;BME280;4769;42.660;23.262;2023-01-15T09:20:22;94358.44;;;9.49;66.04
9462;BME280;4769;42.660;23.262;2023-01-15T09:22:50;94354.78;;;9.09;66.87
9462;BME280;4769;42.660;23.262;2023-01-15T09:25:17;94354.66;;;9.04;67.28
9462;BME280;4769;42.660;23.262;2023-01-15T09:27:44;94346.59;;;9.17;67.60
9462;BME280;4769;42.660;23.262;2023-01-15T09:30:15;94352.69;;;9.40;67.63
9462;BME280;4769;42.660;23.262;2023-01-15T09:32:45;94350.44;;;9.67;66.29
9462;BME280;4769;42.660;23.262;2023-01-15T09:35:11;94347.81;;;9.78;66.06
9462;BME280;4769;42.660;23.262;2023-01-15T09:37:38;94337.00;;;9.22;65.72
9462;BME280;4769;42.660;23.262;2023-01-15T09:40:10;94332.78;;;8.80;67.70
9462;BME280;4769;42.660;23.262;2023-01-15T09:42:51;94338.31;;;9.02;68.24
9462;BME280;4769;42.660;23.262;2023-01-15T09:45:24;94324.63;;;9.11;66.79
9462;BME280;4769;42.660;23.262;2023-01-15T09:48:06;94325.25;;;8.84;67.37
9462;BME280;4769;42.660;23.262;2023-01-15T09:50:47;94321.75;;;9.01;67.55
9462;BME280;4769;42.660;23.262;2023-01-15T09:56:23;94311.69;;;9.10;67.81
9462;BME280;4769;42.660;23.262;2023-01-15T09:58:53;94304.63;;;9.22;67.62
9462;BME280;4769;42.660;23.262;2023-01-15T10:01:25;94298.66;;;9.38;66.95
9462;BME280;4769;42.660;23.262;2023-01-15T10:03:58;94295.81;;;9.51;66.12
9462;BME280;4769;42.660;23.262;2023-01-15T10:06:29;94282.88;;;9.15;66.70
9462;BME280;4769;42.660;23.262;2023-01-15T10:09:03;94278.19;;;9.05;67.14
9462;BME280;4769;42.660;23.262;2023-01-15T10:11:37;94279.13;;;9.34;66.08
9462;BME280;4769;42.660;23.262;2023-01-15T10:14:42;94277.28;;;9.57;65.93
9462;BME280;4769;42.660;23.262;2023-01-15T10:17:20;94273.63;;;9.47;66.44
9462;BME280;4769;42.660;23.262;2023-01-15T10:19:50;94260.56;;;9.52;66.33
9462;BME280;4769;42.660;23.262;2023-01-15T10:22:27;94263.69;;;9.26;67.24
9462;BME280;4769;42.660;23.262;2023-01-15T10:24:57;94263.34;;;9.11;67.60
9462;BME280;4769;42.660;23.262;2023-01-15T10:27:26;94258.09;;;9.34;67.40
9462;BME280;4769;42.660;23.262;2023-01-15T10:29:59;94256.34;;;9.51;66.79
9462;BME280;4769;42.660;23.262;2023-01-15T10:32:34;94244.22;;;9.61;66.54
9462;BME280;4769;42.660;23.262;2023-01-15T10:35:28;94238.59;;;9.81;65.80
9462;BME280;4769;42.660;23.262;2023-01-15T10:38:04;94239.66;;;9.34;66.35
9462;BME280;4769;42.660;23.262;2023-01-15T10:40:49;94239.41;;;9.47;67.11
9462;BME280;4769;42.660;23.262;2023-01-15T10:43:24;94227.50;;;9.56;67.19
9462;BME280;4769;42.660;23.262;2023-01-15T10:46:00;94230.94;;;9.45;67.58
9462;BME280;4769;42.660;23.262;2023-01-15T10:48:33;94222.94;;;9.51;67.65
9462;BME280;4769;42.660;23.262;2023-01-15T10:51:15;94217.22;;;9.43;67.58
9462;BME280;4769;42.660;23.262;2023-01-15T10:53:45;94210.75;;;9.85;67.04
9462;BME280;4769;42.660;23.262;2023-01-15T10:56:24;94209.09;;;9.95;65.68
9462;BME280;4769;42.660;23.262;2023-01-15T10:58:56;94203.81;;;9.56;66.70
9462;BME280;4769;42.660;23.262;2023-01-15T11:01:26;94193.56;;;9.20;67.84
9462;BME280;4769;42.660;23.262;2023-01-15T11:03:57;94192.84;;;9.47;67.61
9462;BME280;4769;42.660;23.262;2023-01-15T11:06:25;94189.69;;;9.85;66.62
9462;BME280;4769;42.660;23.262;2023-01-15T11:08:53;94174.84;;;10.51;64.74
9462;BME280;4769;42.660;23.262;2023-01-15T11:11:23;94186.69;;;10.65;63.48
9462;BME280;4769;42.660;23.262;2023-01-15T11:14:05;94176.06;;;11.10;62.20
9462;BME280;4769;42.660;23.262;2023-01-15T11:16:50;94172.66;;;11.47;60.78
9462;BME280;4769;42.660;23.262;2023-01-15T11:19:37;94168.72;;;11.50;60.07
9462;BME280;4769;42.660;23.262;2023-01-15T11:22:11;94170.38;;;11.56;59.86
9462;BME280;4769;42.660;23.262;2023-01-15T11:24:46;94164.06;;;11.73;60.13
9462;BME280;4769;42.660;23.262;2023-01-15T11:27:15;94151.59;;;11.95;59.18
9462;BME280;4769;42.660;23.262;2023-01-15T11:29:44;94154.53;;;12.20;58.66
9462;BME280;4769;42.660;23.262;2023-01-15T11:32:22;94151.31;;;12.45;57.37
9462;BME280;4769;42.660;23.262;2023-01-15T11:34:53;94149.41;;;12.35;57.14
9462;BME280;4769;42.660;23.262;2023-01-15T11:37:21;94143.44;;;12.50;56.32
9462;BME280;4769;42.660;23.262;2023-01-15T11:39:52;94140.78;;;12.50;56.31
9462;BME280;4769;42.660;23.262;2023-01-15T11:42:19;94134.13;;;12.42;56.87
9462;BME280;4769;42.660;23.262;2023-01-15T11:45:12;94139.34;;;12.37;55.94
9462;BME280;4769;42.660;23.262;2023-01-15T11:47:56;94135.69;;;13.01;55.50
9462;BME280;4769;42.660;23.262;2023-01-15T11:50:49;94123.44;;;12.90;54.95
9462;BME280;4769;42.660;23.262;2023-01-15T11:53:21;94126.56;;;12.87;54.42
9462;BME280;4769;42.660;23.262;2023-01-15T11:55:51;94131.59;;;13.20;54.52
9462;BME280;4769;42.660;23.262;2023-01-15T11:58:18;94115.03;;;13.40;53.27
9462;BME280;4769;42.660;23.262;2023-01-15T12:00:48;94122.78;;;13.10;54.32
9462;BME280;4769;42.660;23.262;2023-01-15T12:03:19;94119.75;;;13.38;54.69
9462;BME280;4769;42.660;23.262;2023-01-15T12:05:53;94110.13;;;13.73;53.87
9462;BME280;4769;42.660;23.262;2023-01-15T12:08:29;94123.09;;;13.65;52.13
9462;BME280;4769;42.660;23.262;2023-01-15T12:11:03;94110.69;;;13.24;53.60
9462;BME280;4769;42.660;23.262;2023-01-15T12:13:44;94103.03;;;13.22;53.45
9462;BME280;4769;42.660;23.262;2023-01-15T12:16:20;94109.53;;;13.51;53.33
9462;BME280;4769;42.660;23.262;2023-01-15T12:18:55;94100.47;;;13.01;53.85
9462;BME280;4769;42.660;23.262;2023-01-15T12:21:44;94095.09;;;13.22;53.16
9462;BME280;4769;42.660;23.262;2023-01-15T12:24:44;94095.28;;;12.79;53.89
9462;BME280;4769;42.660;23.262;2023-01-15T12:27:31;94095.09;;;12.54;55.57
9462;BME280;4769;42.660;23.262;2023-01-15T12:30:08;94089.03;;;12.59;55.75
9462;BME280;4769;42.660;23.262;2023-01-15T12:32:42;94094.13;;;12.97;54.53
9462;BME280;4769;42.660;23.262;2023-01-15T12:35:15;94087.44;;;13.31;53.76
9462;BME280;4769;42.660;23.262;2023-01-15T12:37:46;94083.59;;;13.63;52.71
9462;BME280;4769;42.660;23.262;2023-01-15T12:40:20;94083.97;;;13.87;51.67
9462;BME280;4769;42.660;23.262;2023-01-15T12:42:52;94079.25;;;14.09;50.69
9462;BME280;4769;42.660;23.262;2023-01-15T12:45:40;94084.47;;;13.84;52.01
9462;BME280;4769;42.660;23.262;2023-01-15T12:48:13;94073.78;;;13.59;52.18
9462;BME280;4769;42.660;23.262;2023-01-15T12:50:43;94075.16;;;13.15;52.13
9462;BME280;4769;42.660;23.262;2023-01-15T12:53:15;94074.16;;;12.84;54.10
9462;BME280;4769;42.660;23.262;2023-01-15T12:55:51;94068.03;;;13.15;53.92
9462;BME280;4769;42.660;23.262;2023-01-15T12:58:32;94063.22;;;13.07;53.04
9462;BME280;4769;42.660;23.262;2023-01-15T13:01:12;94058.84;;;13.38;53.08
9462;BME280;4769;42.660;23.262;2023-01-15T13:03:50;94056.72;;;13.30;53.06
9462;BME280;4769;42.660;23.262;2023-01-15T13:06:22;94062.28;;;13.28;53.15
9462;BME280;4769;42.660;23.262;2023-01-15T13:08:58;94051.75;;;12.24;56.82
9462;BME280;4769;42.660;23.262;2023-01-15T13:11:29;94053.66;;;11.75;59.28
9462;BME280;4769;42.660;23.262;2023-01-15T13:13:56;94056.97;;;12.50;58.13
9462;BME280;4769;42.660;23.262;2023-01-15T13:16:35;94059.69;;;12.60;56.32
9462;BME280;4769;42.660;23.262;2023-01-15T13:19:15;94054.25;;;12.77;55.45
9462;BME280;4769;42.660;23.262;2023-01-15T13:21:46;94050.00;;;12.08;57.18
9462;BME280;4769;42.660;23.262;2023-01-15T13:24:32;94053.03;;;11.90;58.44
9462;BME280;4769;42.660;23.262;2023-01-15T13:27:18;94038.91;;;10.93;62.23
9462;BME280;4769;42.660;23.262;2023-01-15T13:29:57;94047.22;;;11.66;60.75
9462;BME280;4769;42.660;23.262;2023-01-15T13:32:31;94036.56;;;11.83;59.45
9462;BME280;4769;42.660;23.262;2023-01-15T13:35:05;94032.66;;;11.90;59.04
9462;BME280;4769;42.660;23.262;2023-01-15T13:37:40;94038.69;;;11.59;60.49
9462;BME280;4769;42.660;23.262;2023-01-15T13:40:12;94034.63;;;11.73;59.74
9462;BME280;4769;42.660;23.262;2023-01-15T13:42:47;94031.19;;;11.08;62.08
9462;BME280;4769;42.660;23.262;2023-01-15T13:45:27;94035.06;;;10.30;65.15